createdAt,value
2016-03-13T00:00:33.433Z,0
2016-03-13T00:01:33.749Z,0
2016-03-13T00:02:33.642Z,0
2016-03-13T00:03:33.769Z,0
2016-03-13T00:04:33.616Z,0
2016-03-13T00:05:33.743Z,0
2016-03-13T00:06:32.262Z,0
2016-03-13T00:07:26.812Z,0
2016-03-13T00:08:26.767Z,0
2016-03-13T00:09:26.739Z,0
2016-03-13T00:10:26.695Z,0
2016-03-13T00:11:26.682Z,0
2016-03-13T00:12:26.638Z,0
2016-03-13T00:13:26.594Z,0
2016-03-13T00:14:26.565Z,0
2016-03-13T00:15:26.551Z,0
2016-03-13T00:16:26.507Z,0
2016-03-13T00:17:26.464Z,0
2016-03-13T00:18:26.420Z,0
2016-03-13T00:19:26.391Z,0
2016-03-13T00:20:26.347Z,0
2016-03-13T00:21:26.318Z,0
2016-03-13T00:22:26.289Z,0
2016-03-13T00:23:26.245Z,0
2016-03-13T00:24:26.201Z,0
2016-03-13T00:25:26.172Z,0
2016-03-13T00:26:26.144Z,0
2016-03-13T00:27:25.959Z,0
2016-03-13T00:28:26.086Z,0
2016-03-13T00:29:26.058Z,0
2016-03-13T00:30:26.014Z,0
2016-03-13T00:31:25.986Z,0
2016-03-13T00:32:25.942Z,0
2016-03-13T00:33:25.928Z,0
2016-03-13T00:34:25.869Z,0
2016-03-13T00:35:25.840Z,0
2016-03-13T00:36:25.811Z,0
2016-03-13T00:37:25.798Z,0
2016-03-13T00:38:25.739Z,0
2016-03-13T00:39:25.731Z,0
2016-03-13T00:40:25.671Z,0
2016-03-13T00:41:25.627Z,0
2016-03-13T00:42:25.614Z,0
2016-03-13T00:43:25.554Z,0
2016-03-13T00:44:25.526Z,0
2016-03-13T00:45:25.497Z,0
2016-03-13T00:46:25.468Z,0
2016-03-13T00:47:25.423Z,0
2016-03-13T00:48:25.381Z,0
2016-03-13T00:49:25.351Z,0
2016-03-13T00:50:25.323Z,0
2016-03-13T00:51:25.295Z,0
2016-03-13T00:52:25.250Z,0
2016-03-13T00:53:25.237Z,0
2016-03-13T00:54:25.177Z,0
2016-03-13T00:55:25.149Z,0
2016-03-13T00:56:25.120Z,0
2016-03-13T00:57:25.075Z,0
2016-03-13T00:58:25.047Z,0
2016-03-13T00:59:25.019Z,0
2016-03-13T01:00:24.975Z,0
2016-03-13T01:01:24.947Z,0
2016-03-13T01:02:24.918Z,0
2016-03-13T01:03:24.874Z,0
2016-03-13T01:04:24.844Z,0
2016-03-13T01:05:24.816Z,0
2016-03-13T01:06:24.771Z,0
2016-03-13T01:07:24.728Z,0
2016-03-13T01:08:24.699Z,0
2016-03-13T01:09:24.655Z,0
2016-03-13T01:10:24.643Z,0
2016-03-13T01:11:24.614Z,0
2016-03-13T01:12:24.570Z,0
2016-03-13T01:13:30.681Z,0
2016-03-13T01:14:24.668Z,0
2016-03-13T01:15:24.468Z,0
2016-03-13T01:16:24.439Z,0
2016-03-13T01:17:24.395Z,0
2016-03-13T01:18:24.368Z,0
2016-03-13T01:19:24.339Z,0
2016-03-13T01:20:24.513Z,0
2016-03-13T01:21:24.265Z,0
2016-03-13T01:22:24.222Z,0
2016-03-13T01:23:24.192Z,0
2016-03-13T01:24:24.164Z,0
2016-03-13T01:25:24.135Z,0
2016-03-13T01:26:24.092Z,0
2016-03-13T01:27:24.063Z,0
2016-03-13T01:28:24.050Z,0
2016-03-13T01:29:24.006Z,0
2016-03-13T01:30:23.977Z,0
2016-03-13T01:31:23.949Z,0
2016-03-13T01:32:23.920Z,0
2016-03-13T01:33:23.876Z,0
2016-03-13T01:34:23.832Z,0
2016-03-13T01:35:23.802Z,0
2016-03-13T01:36:23.790Z,0
2016-03-13T01:37:23.763Z,0
2016-03-13T01:38:23.702Z,0
2016-03-13T01:39:23.674Z,0
2016-03-13T01:40:23.645Z,0
2016-03-13T01:41:23.601Z,0
2016-03-13T01:42:23.571Z,0
2016-03-13T01:43:23.528Z,0
2016-03-13T01:44:23.499Z,0
2016-03-13T01:45:23.471Z,0
2016-03-13T01:46:23.427Z,0
2016-03-13T01:47:23.398Z,0
2016-03-13T01:48:23.385Z,0
2016-03-13T01:49:23.341Z,0
2016-03-13T01:50:23.312Z,0
2016-03-13T01:51:23.268Z,0
2016-03-13T01:52:23.239Z,0
2016-03-13T01:53:23.195Z,0
2016-03-13T01:54:23.167Z,0
2016-03-13T01:55:23.106Z,0
2016-03-13T01:56:23.095Z,0
2016-03-13T01:57:23.066Z,0
2016-03-13T01:58:23.037Z,0
2016-03-13T01:59:22.992Z,0
2016-03-13T02:00:22.964Z,0
2016-03-13T02:01:22.920Z,0
2016-03-13T02:02:22.891Z,0
2016-03-13T02:03:22.863Z,0
2016-03-13T02:04:22.819Z,0
2016-03-13T02:05:22.791Z,0
2016-03-13T02:06:22.761Z,0
2016-03-13T02:07:22.733Z,0
2016-03-13T02:08:22.689Z,0
2016-03-13T02:09:22.676Z,0
2016-03-13T02:10:22.616Z,0
2016-03-13T02:11:22.619Z,0
2016-03-13T02:12:22.559Z,0
2016-03-13T02:13:22.405Z,0
2016-03-13T02:14:22.486Z,0
2016-03-13T02:15:22.458Z,0
2016-03-13T02:16:22.429Z,0
2016-03-13T02:17:22.385Z,0
2016-03-13T02:18:22.357Z,0
2016-03-13T02:19:22.312Z,0
2016-03-13T02:20:22.299Z,0
2016-03-13T02:21:22.240Z,0
2016-03-13T02:22:22.242Z,0
2016-03-13T02:23:22.182Z,0
2016-03-13T02:24:22.169Z,0
2016-03-13T02:25:22.125Z,0
2016-03-13T02:26:22.097Z,0
2016-03-13T02:27:22.037Z,0
2016-03-13T02:28:21.868Z,0
2016-03-13T02:29:21.980Z,0
2016-03-13T02:30:21.967Z,0
2016-03-13T02:31:21.907Z,0
2016-03-13T02:32:21.894Z,0
2016-03-13T02:33:21.833Z,0
2016-03-13T02:34:21.822Z,0
2016-03-13T02:35:21.794Z,0
2016-03-13T02:36:21.748Z,0
2016-03-13T02:37:21.705Z,0
2016-03-13T02:38:21.692Z,0
2016-03-13T02:39:21.647Z,0
2016-03-13T02:40:21.619Z,0
2016-03-13T02:41:21.559Z,0
2016-03-13T02:42:21.546Z,0
2016-03-13T02:43:21.518Z,0
2016-03-13T02:44:21.474Z,0
2016-03-13T02:45:21.429Z,0
2016-03-13T02:46:21.416Z,0
2016-03-13T02:47:21.387Z,0
2016-03-13T02:48:21.390Z,0
2016-03-13T02:49:21.331Z,0
2016-03-13T02:50:21.317Z,0
2016-03-13T02:51:21.226Z,0
2016-03-13T02:52:21.245Z,0
2016-03-13T02:53:21.200Z,0
2016-03-13T02:54:21.187Z,0
2016-03-13T02:55:21.112Z,0
2016-03-13T02:56:21.100Z,0
2016-03-13T02:57:21.071Z,0
2016-03-13T02:58:21.026Z,0
2016-03-13T02:59:20.967Z,0
2016-03-13T03:00:20.954Z,0
2016-03-13T03:01:20.910Z,0
2016-03-13T03:02:20.866Z,0
2016-03-13T03:03:20.884Z,0
2016-03-13T03:04:20.809Z,0
2016-03-13T03:05:20.795Z,0
2016-03-13T03:06:20.752Z,0
2016-03-13T03:07:20.722Z,0
2016-03-13T03:08:20.663Z,0
2016-03-13T03:09:20.650Z,0
2016-03-13T03:10:20.621Z,0
2016-03-13T03:11:20.577Z,0
2016-03-13T03:12:20.439Z,0
2016-03-13T03:13:20.535Z,0
2016-03-13T03:14:20.460Z,0
2016-03-13T03:15:20.463Z,0
2016-03-13T03:16:20.403Z,0
2016-03-13T03:17:20.390Z,0
2016-03-13T03:18:20.329Z,0
2016-03-13T03:19:20.317Z,0
2016-03-13T03:20:20.257Z,0
2016-03-13T03:21:20.229Z,0
2016-03-13T03:22:20.200Z,0
2016-03-13T03:23:20.047Z,0
2016-03-13T03:24:20.143Z,0
2016-03-13T03:25:20.130Z,0
2016-03-13T03:26:20.055Z,0
2016-03-13T03:27:19.964Z,0
2016-03-13T03:28:19.997Z,0
2016-03-13T03:29:19.970Z,0
2016-03-13T03:30:19.925Z,0
2016-03-13T03:31:19.897Z,0
2016-03-13T03:32:19.853Z,0
2016-03-13T03:33:19.839Z,0
2016-03-13T03:34:19.795Z,0
2016-03-13T03:35:19.783Z,0
2016-03-13T03:36:19.738Z,0
2016-03-13T03:37:19.694Z,0
2016-03-13T03:38:19.666Z,0
2016-03-13T03:39:19.653Z,0
2016-03-13T03:40:19.608Z,0
2016-03-13T03:41:19.580Z,0
2016-03-13T03:42:19.551Z,0
2016-03-13T03:43:19.507Z,0
2016-03-13T03:44:19.463Z,0
2016-03-13T03:45:19.434Z,0
2016-03-13T03:46:19.405Z,0
2016-03-13T03:47:19.362Z,0
2016-03-13T03:48:19.332Z,0
2016-03-13T03:49:19.304Z,0
2016-03-13T03:50:19.276Z,0
2016-03-13T03:51:19.247Z,0
2016-03-13T03:52:19.203Z,0
2016-03-13T03:53:19.158Z,0
2016-03-13T03:54:19.130Z,0
2016-03-13T03:55:19.101Z,0
2016-03-13T03:56:19.073Z,0
2016-03-13T03:57:19.028Z,0
2016-03-13T03:58:18.984Z,0
2016-03-13T03:59:18.956Z,0
2016-03-13T04:00:18.927Z,0
2016-03-13T04:01:18.883Z,0
2016-03-13T04:02:18.870Z,0
2016-03-13T04:03:18.826Z,0
2016-03-13T04:04:18.798Z,0
2016-03-13T04:05:18.769Z,0
2016-03-13T04:06:18.741Z,0
2016-03-13T04:07:18.681Z,0
2016-03-13T04:08:18.652Z,0
2016-03-13T04:09:18.624Z,0
2016-03-13T04:10:18.595Z,0
2016-03-13T04:11:18.566Z,0
2016-03-13T04:12:18.538Z,0
2016-03-13T04:13:18.494Z,0
2016-03-13T04:14:18.465Z,0
2016-03-13T04:15:18.421Z,0
2016-03-13T04:16:18.393Z,0
2016-03-13T04:17:18.363Z,0
2016-03-13T04:18:18.320Z,0
2016-03-13T04:19:18.291Z,0
2016-03-13T04:20:18.262Z,0
2016-03-13T04:21:18.218Z,0
2016-03-13T04:22:18.174Z,0
2016-03-13T04:23:18.145Z,0
2016-03-13T04:24:18.132Z,0
2016-03-13T04:25:18.089Z,0
2016-03-13T04:26:18.044Z,0
2016-03-13T04:27:18.032Z,0
2016-03-13T04:28:18.003Z,0
2016-03-13T04:29:17.959Z,0
2016-03-13T04:30:17.946Z,0
2016-03-13T04:31:17.886Z,0
2016-03-13T04:32:17.701Z,0
2016-03-13T04:33:17.814Z,0
2016-03-13T04:34:17.785Z,0
2016-03-13T04:35:17.756Z,0
2016-03-13T04:36:17.728Z,0
2016-03-13T04:37:17.700Z,0
2016-03-13T04:38:17.670Z,0
2016-03-13T04:39:17.627Z,0
2016-03-13T04:40:17.597Z,0
2016-03-13T04:41:17.553Z,0
2016-03-13T04:42:17.525Z,0
2016-03-13T04:43:17.480Z,0
2016-03-13T04:44:17.452Z,0
2016-03-13T04:45:17.424Z,0
2016-03-13T04:46:17.395Z,0
2016-03-13T04:47:17.366Z,0
2016-03-13T04:48:17.322Z,0
2016-03-13T04:49:17.309Z,0
2016-03-13T04:50:17.296Z,0
2016-03-13T04:51:17.236Z,0
2016-03-13T04:52:17.192Z,0
2016-03-13T04:53:17.179Z,0
2016-03-13T04:54:17.151Z,0
2016-03-13T04:55:17.106Z,0
2016-03-13T04:56:17.062Z,0
2016-03-13T04:57:17.050Z,0
2016-03-13T04:58:16.989Z,0
2016-03-13T04:59:16.945Z,0
2016-03-13T05:00:16.933Z,0
2016-03-13T05:01:16.904Z,0
2016-03-13T05:02:16.876Z,0
2016-03-13T05:03:16.847Z,0
2016-03-13T05:04:16.803Z,0
2016-03-13T05:05:16.759Z,0
2016-03-13T05:06:16.574Z,0
2016-03-13T05:07:16.686Z,0
2016-03-13T05:08:16.658Z,0
2016-03-13T05:09:16.628Z,0
2016-03-13T05:10:16.585Z,0
2016-03-13T05:11:16.572Z,0
2016-03-13T05:12:16.355Z,0
2016-03-13T05:13:16.483Z,0
2016-03-13T05:14:16.439Z,0
2016-03-13T05:15:16.410Z,0
2016-03-13T05:16:16.382Z,0
2016-03-13T05:17:16.354Z,0
2016-03-13T05:18:16.324Z,0
2016-03-13T05:19:16.280Z,0
2016-03-13T05:20:16.268Z,0
2016-03-13T05:21:16.207Z,0
2016-03-13T05:22:16.179Z,0
2016-03-13T05:23:16.151Z,0
2016-03-13T05:24:16.106Z,0
2016-03-13T05:25:16.093Z,0
2016-03-13T05:26:16.048Z,0
2016-03-13T05:27:16.005Z,0
2016-03-13T05:28:15.976Z,0
2016-03-13T05:29:15.947Z,0
2016-03-13T05:30:15.919Z,0
2016-03-13T05:31:15.875Z,0
2016-03-13T05:32:15.862Z,0
2016-03-13T05:33:15.802Z,0
2016-03-13T05:34:15.789Z,0
2016-03-13T05:35:15.761Z,0
2016-03-13T05:36:15.701Z,0
2016-03-13T05:37:15.673Z,0
2016-03-13T05:38:15.644Z,0
2016-03-13T05:39:15.600Z,0
2016-03-13T05:40:15.587Z,0
2016-03-13T05:41:15.543Z,0
2016-03-13T05:42:15.514Z,0
2016-03-13T05:43:15.486Z,0
2016-03-13T05:44:15.457Z,5
2016-03-13T05:45:15.413Z,5
2016-03-13T05:46:17.651Z,5
2016-03-13T05:47:15.263Z,5
2016-03-13T05:48:15.297Z,5
2016-03-13T05:49:17.911Z,10
2016-03-13T05:50:15.227Z,10
2016-03-13T05:51:15.230Z,10
2016-03-13T05:52:15.169Z,10
2016-03-13T05:53:15.141Z,10
2016-03-13T05:54:15.097Z,15
2016-03-13T05:55:15.069Z,15
2016-03-13T05:56:15.040Z,15
2016-03-13T05:57:15.011Z,15
2016-03-13T05:58:14.968Z,20
2016-03-13T05:59:14.943Z,20
2016-03-13T06:00:14.899Z,20
2016-03-13T06:01:14.871Z,20
2016-03-13T06:02:14.826Z,20
2016-03-13T06:03:14.814Z,20
2016-03-13T06:04:14.770Z,25
2016-03-13T06:05:14.740Z,25
2016-03-13T06:06:14.572Z,25
2016-03-13T06:07:14.712Z,30
2016-03-13T06:08:14.496Z,30
2016-03-13T06:09:14.640Z,30
2016-03-13T06:10:14.580Z,30
2016-03-13T06:11:14.551Z,35
2016-03-13T06:12:14.507Z,35
2016-03-13T06:13:14.464Z,40
2016-03-13T06:14:14.419Z,40
2016-03-13T06:15:14.437Z,45
2016-03-13T06:16:14.362Z,45
2016-03-13T06:17:14.333Z,45
2016-03-13T06:18:14.289Z,45
2016-03-13T06:19:14.261Z,45
2016-03-13T06:20:14.232Z,50
2016-03-13T06:21:14.188Z,50
2016-03-13T06:22:14.158Z,50
2016-03-13T06:23:14.146Z,55
2016-03-13T06:24:14.086Z,60
2016-03-13T06:25:14.057Z,60
2016-03-13T06:26:14.029Z,60
2016-03-13T06:27:14.001Z,65
2016-03-13T06:28:13.971Z,65
2016-03-13T06:29:13.943Z,65
2016-03-13T06:30:13.884Z,70
2016-03-13T06:31:13.886Z,75
2016-03-13T06:32:13.826Z,75
2016-03-13T06:33:13.798Z,75
2016-03-13T06:34:13.753Z,80
2016-03-13T06:35:13.740Z,85
2016-03-13T06:36:13.696Z,85
2016-03-13T06:37:13.652Z,85
2016-03-13T06:38:13.655Z,90
2016-03-13T06:39:13.579Z,90
2016-03-13T06:40:13.566Z,90
2016-03-13T06:41:13.523Z,90
2016-03-13T06:42:13.509Z,95
2016-03-13T06:43:13.356Z,95
2016-03-13T06:44:13.453Z,95
2016-03-13T06:45:13.392Z,100
2016-03-13T06:46:13.395Z,105
2016-03-13T06:47:13.336Z,110
2016-03-13T06:48:17.010Z,105
2016-03-13T06:49:18.310Z,105
2016-03-13T06:50:13.249Z,115
2016-03-13T06:51:13.205Z,120
2016-03-13T06:52:13.161Z,125
2016-03-13T06:53:13.149Z,125
2016-03-13T06:54:13.104Z,120
2016-03-13T06:55:13.076Z,115
2016-03-13T06:56:13.016Z,110
2016-03-13T06:57:13.002Z,105
2016-03-13T06:58:13.021Z,105
2016-03-13T06:59:12.993Z,100
2016-03-13T07:00:12.902Z,105
2016-03-13T07:01:12.905Z,110
2016-03-13T07:02:19.032Z,110
2016-03-13T07:03:12.816Z,110
2016-03-13T07:04:12.819Z,115
2016-03-13T07:05:12.743Z,120
2016-03-13T07:06:12.715Z,125
2016-03-13T07:07:12.671Z,130
2016-03-13T07:08:12.642Z,130
2016-03-13T07:09:12.598Z,125
2016-03-13T07:10:12.569Z,120
2016-03-13T07:11:12.556Z,120
2016-03-13T07:12:12.512Z,120
2016-03-13T07:13:12.531Z,120
2016-03-13T07:14:12.455Z,115
2016-03-13T07:15:12.286Z,120
2016-03-13T07:16:12.367Z,135
2016-03-13T07:17:12.353Z,140
2016-03-13T07:18:12.309Z,155
2016-03-13T07:19:12.280Z,170
2016-03-13T07:20:12.252Z,170
2016-03-13T07:21:12.208Z,170
2016-03-13T07:22:12.210Z,175
2016-03-13T07:23:12.135Z,170
2016-03-13T07:24:12.138Z,165
2016-03-13T07:25:12.077Z,160
2016-03-13T07:26:12.097Z,155
2016-03-13T07:27:12.052Z,145
2016-03-13T07:28:12.008Z,145
2016-03-13T07:29:11.980Z,150
2016-03-13T07:30:11.982Z,155
2016-03-13T07:31:11.923Z,165
2016-03-13T07:32:11.894Z,185
2016-03-13T07:33:11.835Z,185
2016-03-13T07:34:11.806Z,185
2016-03-13T07:35:11.762Z,175
2016-03-13T07:36:11.732Z,175
2016-03-13T07:37:11.751Z,190
2016-03-13T07:38:11.660Z,205
2016-03-13T07:39:11.678Z,210
2016-03-13T07:40:11.618Z,210
2016-03-13T07:41:11.590Z,215
2016-03-13T07:42:11.545Z,215
2016-03-13T07:43:11.548Z,210
2016-03-13T07:44:11.472Z,195
2016-03-13T07:45:11.475Z,185
2016-03-13T07:46:11.416Z,185
2016-03-13T07:47:11.402Z,180
2016-03-13T07:48:11.358Z,180
2016-03-13T07:49:11.361Z,180
2016-03-13T07:50:11.286Z,180
2016-03-13T07:51:11.273Z,190
2016-03-13T07:52:11.276Z,195
2016-03-13T07:53:11.200Z,205
2016-03-13T07:54:11.203Z,205
2016-03-13T07:55:11.144Z,200
2016-03-13T07:56:11.115Z,195
2016-03-13T07:57:11.086Z,195
2016-03-13T07:58:11.057Z,185
2016-03-13T07:59:11.029Z,185
2016-03-13T08:00:10.969Z,185
2016-03-13T08:01:10.940Z,185
2016-03-13T08:02:10.927Z,190
2016-03-13T08:03:10.884Z,195
2016-03-13T08:04:10.902Z,195
2016-03-13T08:05:10.811Z,195
2016-03-13T08:06:10.813Z,200
2016-03-13T08:07:10.770Z,200
2016-03-13T08:08:10.756Z,205
2016-03-13T08:09:10.696Z,200
2016-03-13T08:10:10.684Z,200
2016-03-13T08:11:10.623Z,210
2016-03-13T08:12:10.611Z,215
2016-03-13T08:13:10.598Z,205
2016-03-13T08:14:10.570Z,210
2016-03-13T08:15:10.509Z,225
2016-03-13T08:16:10.481Z,245
2016-03-13T08:17:10.450Z,245
2016-03-13T08:18:10.406Z,250
2016-03-13T08:19:10.392Z,255
2016-03-13T08:20:10.364Z,275
2016-03-13T08:21:10.367Z,275
2016-03-13T08:22:10.291Z,260
2016-03-13T08:23:10.278Z,250
2016-03-13T08:24:10.218Z,245
2016-03-13T08:25:10.236Z,245
2016-03-13T08:26:10.161Z,255
2016-03-13T08:27:10.148Z,270
2016-03-13T08:28:10.511Z,280
2016-03-13T08:29:10.076Z,285
2016-03-13T08:30:10.032Z,270
2016-03-13T08:31:10.035Z,270
2016-03-13T08:32:09.974Z,280
2016-03-13T08:33:09.962Z,285
2016-03-13T08:34:09.964Z,270
2016-03-13T08:35:09.888Z,250
2016-03-13T08:36:09.906Z,250
2016-03-13T08:37:09.818Z,255
2016-03-13T08:38:09.806Z,245
2016-03-13T08:39:09.718Z,220
2016-03-13T08:40:09.690Z,210
2016-03-13T08:41:09.632Z,215
2016-03-13T08:42:09.615Z,215
2016-03-13T08:43:09.581Z,225
2016-03-13T08:44:09.547Z,235
2016-03-13T08:45:09.488Z,225
2016-03-13T08:46:09.470Z,225
2016-03-13T08:47:09.424Z,210
2016-03-13T08:48:09.409Z,215
2016-03-13T08:49:09.363Z,190
2016-03-13T08:50:09.348Z,185
2016-03-13T08:51:09.146Z,195
2016-03-13T08:52:09.273Z,195
2016-03-13T08:53:09.243Z,200
2016-03-13T08:54:09.199Z,210
2016-03-13T08:55:09.168Z,210
2016-03-13T08:56:08.999Z,200
2016-03-13T08:57:09.094Z,185
2016-03-13T08:58:09.065Z,175
2016-03-13T08:59:09.052Z,170
2016-03-13T09:00:09.024Z,160
2016-03-13T09:01:08.964Z,155
2016-03-13T09:02:08.934Z,160
2016-03-13T09:03:08.922Z,165
2016-03-13T09:04:08.878Z,175
2016-03-13T09:05:08.865Z,185
2016-03-13T09:06:08.837Z,210
2016-03-13T09:07:08.799Z,225
2016-03-13T09:08:08.755Z,205
2016-03-13T09:09:08.742Z,205
2016-03-13T09:10:08.713Z,195
2016-03-13T09:11:08.654Z,195
2016-03-13T09:12:08.640Z,205
2016-03-13T09:13:08.612Z,210
2016-03-13T09:14:08.568Z,200
2016-03-13T09:15:08.539Z,195
2016-03-13T09:16:08.511Z,195
2016-03-13T09:17:08.498Z,195
2016-03-13T09:18:08.438Z,200
2016-03-13T09:19:08.440Z,205
2016-03-13T09:20:08.381Z,195
2016-03-13T09:21:08.227Z,205
2016-03-13T09:22:08.340Z,205
2016-03-13T09:23:08.170Z,200
2016-03-13T09:24:08.267Z,210
2016-03-13T09:25:08.253Z,215
2016-03-13T09:26:08.194Z,210
2016-03-13T09:27:08.180Z,200
2016-03-13T09:28:08.136Z,200
2016-03-13T09:29:08.108Z,190
2016-03-13T09:30:08.095Z,190
2016-03-13T09:31:08.052Z,185
2016-03-13T09:32:08.038Z,185
2016-03-13T09:33:07.822Z,195
2016-03-13T09:34:07.966Z,200
2016-03-13T09:35:07.921Z,195
2016-03-13T09:36:07.908Z,200
2016-03-13T09:37:07.864Z,230
2016-03-13T09:38:07.835Z,210
2016-03-13T09:39:07.791Z,200
2016-03-13T09:40:07.779Z,195
2016-03-13T09:41:07.735Z,205
2016-03-13T09:42:07.721Z,230
2016-03-13T09:43:07.724Z,260
2016-03-13T09:44:07.649Z,265
2016-03-13T09:45:07.620Z,295
2016-03-13T09:46:07.435Z,300
2016-03-13T09:47:07.579Z,300
2016-03-13T09:48:07.504Z,305
2016-03-13T09:49:07.506Z,295
2016-03-13T09:50:07.478Z,275
2016-03-13T09:51:07.292Z,290
2016-03-13T09:52:07.389Z,290
2016-03-13T09:53:07.375Z,280
2016-03-13T09:54:07.332Z,275
2016-03-13T09:55:07.303Z,270
2016-03-13T09:56:07.275Z,255
2016-03-13T09:57:07.262Z,245
2016-03-13T09:58:07.217Z,255
2016-03-13T09:59:07.173Z,235
2016-03-13T10:00:07.176Z,225
2016-03-13T10:01:07.132Z,230
2016-03-13T10:02:07.103Z,240
2016-03-13T10:03:07.058Z,240
2016-03-13T10:04:07.046Z,250
2016-03-13T10:05:07.002Z,245
2016-03-13T10:06:07.005Z,235
2016-03-13T10:07:06.930Z,230
2016-03-13T10:08:06.947Z,230
2016-03-13T10:09:06.872Z,250
2016-03-13T10:10:06.874Z,260
2016-03-13T10:11:06.815Z,260
2016-03-13T10:12:06.818Z,295
2016-03-13T10:13:06.758Z,300
2016-03-13T10:14:06.729Z,295
2016-03-13T10:15:06.716Z,295
2016-03-13T10:16:06.657Z,300
2016-03-13T10:17:06.675Z,290
2016-03-13T10:18:06.615Z,270
2016-03-13T10:19:06.601Z,250
2016-03-13T10:20:06.558Z,245
2016-03-13T10:21:06.545Z,260
2016-03-13T10:22:06.469Z,250
2016-03-13T10:23:06.503Z,250
2016-03-13T10:24:06.428Z,260
2016-03-13T10:25:06.415Z,260
2016-03-13T10:26:06.356Z,250
2016-03-13T10:27:06.358Z,250
2016-03-13T10:28:06.298Z,245
2016-03-13T10:29:06.285Z,230
2016-03-13T10:30:06.256Z,230
2016-03-13T10:31:06.056Z,225
2016-03-13T10:32:06.183Z,215
2016-03-13T10:33:06.139Z,220
2016-03-13T10:34:06.127Z,235
2016-03-13T10:35:06.083Z,245
2016-03-13T10:36:06.069Z,245
2016-03-13T10:37:06.057Z,255
2016-03-13T10:38:05.996Z,255
2016-03-13T10:39:05.968Z,260
2016-03-13T10:40:05.940Z,275
2016-03-13T10:41:05.927Z,300
2016-03-13T10:42:05.883Z,315
2016-03-13T10:43:05.901Z,315
2016-03-13T10:44:05.826Z,335
2016-03-13T10:45:05.797Z,330
2016-03-13T10:46:05.784Z,330
2016-03-13T10:47:05.756Z,330
2016-03-13T10:48:05.696Z,310
2016-03-13T10:49:05.698Z,305
2016-03-13T10:50:05.639Z,330
2016-03-13T10:51:05.625Z,305
2016-03-13T10:52:05.581Z,305
2016-03-13T10:53:05.537Z,310
2016-03-13T10:54:05.556Z,295
2016-03-13T10:55:05.496Z,310
2016-03-13T10:56:05.483Z,310
2016-03-13T10:57:05.423Z,325
2016-03-13T10:58:05.426Z,340
2016-03-13T10:59:05.382Z,355
2016-03-13T11:00:05.369Z,340
2016-03-13T11:01:05.339Z,340
2016-03-13T11:02:05.311Z,340
2016-03-13T11:03:05.267Z,355
2016-03-13T11:04:05.255Z,350
2016-03-13T11:05:05.210Z,350
2016-03-13T11:06:05.182Z,360
2016-03-13T11:07:05.122Z,350
2016-03-13T11:08:05.124Z,350
2016-03-13T11:09:05.080Z,335
2016-03-13T11:10:05.052Z,350
2016-03-13T11:11:05.023Z,335
2016-03-13T11:12:04.979Z,315
2016-03-13T11:13:04.982Z,300
2016-03-13T11:14:04.937Z,275
2016-03-13T11:15:04.924Z,260
2016-03-13T11:16:04.879Z,280
2016-03-13T11:17:04.867Z,260
2016-03-13T11:18:04.667Z,235
2016-03-13T11:19:04.810Z,230
2016-03-13T11:20:04.595Z,255
2016-03-13T11:21:04.738Z,280
2016-03-13T11:22:04.693Z,270
2016-03-13T11:23:04.681Z,250
2016-03-13T11:24:04.620Z,245
2016-03-13T11:25:04.608Z,255
2016-03-13T11:26:04.579Z,245
2016-03-13T11:27:04.566Z,230
2016-03-13T11:28:04.522Z,235
2016-03-13T11:29:04.525Z,275
2016-03-13T11:30:04.464Z,315
2016-03-13T11:31:04.264Z,295
2016-03-13T11:32:04.252Z,310
2016-03-13T11:33:04.364Z,295
2016-03-13T11:34:04.336Z,295
2016-03-13T11:35:04.291Z,225
2016-03-13T11:36:04.294Z,180
2016-03-13T11:37:04.250Z,175
2016-03-13T11:38:04.222Z,165
2016-03-13T11:39:04.177Z,170
2016-03-13T11:40:04.164Z,190
2016-03-13T11:41:04.136Z,200
2016-03-13T11:42:04.107Z,185
2016-03-13T11:43:04.094Z,180
2016-03-13T11:44:03.910Z,185
2016-03-13T11:45:04.021Z,185
2016-03-13T11:46:03.993Z,175
2016-03-13T11:47:03.948Z,195
2016-03-13T11:48:03.951Z,220
2016-03-13T11:49:03.891Z,220
2016-03-13T11:50:03.878Z,180
2016-03-13T11:51:03.834Z,185
2016-03-13T11:52:03.821Z,240
2016-03-13T11:53:03.605Z,265
2016-03-13T11:54:03.607Z,290
2016-03-13T11:55:03.704Z,260
2016-03-13T11:56:03.551Z,215
2016-03-13T11:57:03.490Z,210
2016-03-13T11:58:03.634Z,220
2016-03-13T11:59:03.590Z,210
2016-03-13T12:00:03.577Z,190
2016-03-13T12:01:03.534Z,170
2016-03-13T12:02:03.490Z,180
2016-03-13T12:03:03.476Z,190
2016-03-13T12:04:03.432Z,185
2016-03-13T12:05:03.420Z,195
2016-03-13T12:06:03.390Z,180
2016-03-13T12:07:03.393Z,160
2016-03-13T12:08:03.317Z,150
2016-03-13T12:09:03.320Z,155
2016-03-13T12:10:03.260Z,155
2016-03-13T12:11:03.263Z,170
2016-03-13T12:12:03.172Z,180
2016-03-13T12:13:03.206Z,165
2016-03-13T12:14:03.147Z,155
2016-03-13T12:15:03.102Z,165
2016-03-13T12:16:03.074Z,155
2016-03-13T12:17:03.076Z,155
2016-03-13T12:18:03.001Z,160
2016-03-13T12:19:03.066Z,160
2016-03-13T12:20:02.960Z,160
2016-03-13T12:21:02.962Z,155
2016-03-13T12:22:02.887Z,150
2016-03-13T12:23:02.858Z,145
2016-03-13T12:24:02.846Z,150
2016-03-13T12:25:02.785Z,145
2016-03-13T12:26:02.788Z,145
2016-03-13T12:27:02.728Z,155
2016-03-13T12:28:02.746Z,160
2016-03-13T12:29:02.687Z,155
2016-03-13T12:30:02.642Z,160
2016-03-13T12:31:02.630Z,175
2016-03-13T12:32:02.585Z,175
2016-03-13T12:33:02.557Z,170
2016-03-13T12:34:02.529Z,170
2016-03-13T12:35:02.515Z,200
2016-03-13T12:36:02.346Z,225
2016-03-13T12:37:02.442Z,215
2016-03-13T12:38:02.398Z,180
2016-03-13T12:39:02.386Z,140
2016-03-13T12:40:02.372Z,135
2016-03-13T12:41:02.313Z,135
2016-03-13T12:42:02.316Z,145
2016-03-13T12:43:02.272Z,150
2016-03-13T12:44:02.227Z,160
2016-03-13T12:45:02.214Z,155
2016-03-13T12:46:02.186Z,160
2016-03-13T12:47:01.985Z,150
2016-03-13T12:48:02.128Z,145
2016-03-13T12:49:02.084Z,140
2016-03-13T12:50:02.072Z,140
2016-03-13T12:51:02.043Z,140
2016-03-13T12:52:01.982Z,145
2016-03-13T12:53:01.955Z,140
2016-03-13T12:54:01.941Z,140
2016-03-13T12:55:01.913Z,140
2016-03-13T12:56:01.900Z,140
2016-03-13T12:57:01.840Z,135
2016-03-13T12:58:01.812Z,140
2016-03-13T12:59:01.814Z,140
2016-03-13T13:00:01.754Z,135
2016-03-13T13:01:01.726Z,140
2016-03-13T13:02:01.698Z,140
2016-03-13T13:03:01.685Z,140
2016-03-13T13:04:01.640Z,140
2016-03-13T13:05:01.612Z,140
2016-03-13T13:06:01.411Z,145
2016-03-13T13:07:01.539Z,155
2016-03-13T13:08:01.542Z,165
2016-03-13T13:09:01.485Z,165
2016-03-13T13:10:01.441Z,160
2016-03-13T13:11:01.429Z,160
2016-03-13T13:12:01.400Z,165
2016-03-13T13:13:01.387Z,165
2016-03-13T13:14:01.327Z,175
2016-03-13T13:15:01.299Z,205
2016-03-13T13:16:01.270Z,210
2016-03-13T13:17:01.242Z,190
2016-03-13T13:18:01.228Z,155
2016-03-13T13:19:01.216Z,145
2016-03-13T13:20:01.156Z,150
2016-03-13T13:21:01.127Z,165
2016-03-13T13:22:01.083Z,175
2016-03-13T13:23:01.070Z,195
2016-03-13T13:24:01.307Z,220
2016-03-13T13:25:01.029Z,190
2016-03-13T13:26:00.984Z,175
2016-03-13T13:27:00.940Z,210
2016-03-13T13:28:00.911Z,235
2016-03-13T13:29:00.883Z,250
2016-03-13T13:30:00.855Z,275
2016-03-13T13:31:00.842Z,260
2016-03-13T13:32:00.798Z,240
2016-03-13T13:33:00.816Z,230
2016-03-13T13:34:00.725Z,245
2016-03-13T13:35:00.743Z,245
2016-03-13T13:36:00.668Z,225
2016-03-13T13:37:00.671Z,215
2016-03-13T13:38:00.610Z,200
2016-03-13T13:39:00.644Z,180
2016-03-13T13:40:00.599Z,165
2016-03-13T13:41:00.572Z,160
2016-03-13T13:42:00.544Z,155
2016-03-13T13:43:00.468Z,135
2016-03-13T13:44:00.471Z,140
2016-03-13T13:45:00.411Z,130
2016-03-13T13:46:00.383Z,145
2016-03-13T13:47:00.369Z,155
2016-03-13T13:48:00.326Z,145
2016-03-13T13:49:00.296Z,140
2016-03-13T13:50:00.268Z,135
2016-03-13T13:51:00.240Z,135
2016-03-13T13:52:00.211Z,140
2016-03-13T13:53:00.166Z,140
2016-03-13T13:54:00.170Z,135
2016-03-13T13:55:00.109Z,135
2016-03-13T13:56:00.097Z,140
2016-03-13T13:57:00.053Z,150
2016-03-13T13:58:00.023Z,155
2016-03-13T13:59:00.011Z,155
2016-03-13T13:59:59.967Z,165
2016-03-13T14:00:59.954Z,155
2016-03-13T14:01:59.941Z,145
2016-03-13T14:02:59.896Z,135
2016-03-13T14:03:59.853Z,130
2016-03-13T14:04:59.824Z,135
2016-03-13T14:06:03.624Z,125
2016-03-13T14:06:59.782Z,140
2016-03-13T14:07:59.739Z,150
2016-03-13T14:08:59.725Z,155
2016-03-13T14:09:59.681Z,145
2016-03-13T14:10:59.652Z,135
2016-03-13T14:11:59.608Z,130